createdAt,value
2023-05-20T00:02:10.112Z,13.98
2023-05-20T00:04:37.061Z,16.70
2023-05-20T00:07:04.304Z,14.88
2023-05-20T00:09:31.122Z,14.68
2023-05-20T00:11:57.879Z,12.85
2023-05-20T00:14:24.904Z,12.45
2023-05-20T00:16:51.869Z,11.15
2023-05-20T00:19:18.775Z,13.00
2023-05-20T00:21:45.663Z,11.05
2023-05-20T00:24:12.630Z,13.65
2023-05-20T00:26:39.464Z,12.60
2023-05-20T00:29:06.384Z,13.70
2023-05-20T00:31:33.282Z,13.48
2023-05-20T00:34:00.243Z,17.63
2023-05-20T00:36:27.555Z,15.30
2023-05-20T00:38:54.384Z,24.42
2023-05-20T00:41:21.818Z,17.73
2023-05-20T00:43:48.689Z,14.77
2023-05-20T00:46:15.689Z,11.73
2023-05-20T00:48:44.086Z,14.95
2023-05-20T00:51:12.995Z,13.88
2023-05-20T00:53:40.347Z,13.52
2023-05-20T00:56:08.350Z,12.43
2023-05-20T00:58:38.888Z,15.38
2023-05-20T01:01:06.628Z,12.93
2023-05-20T01:03:34.153Z,16.65
2023-05-20T01:06:01.296Z,12.60
2023-05-20T01:08:28.824Z,16.63
2023-05-20T01:11:09.478Z,15.00
2023-05-20T01:13:47.045Z,13.18
2023-05-20T01:16:17.962Z,19.00
2023-05-20T01:18:48.629Z,13.37
2023-05-20T01:21:17.324Z,32.88
2023-05-20T01:23:44.530Z,29.40
2023-05-20T01:26:13.885Z,21.50
2023-05-20T01:28:43.860Z,15.82
2023-05-20T01:31:18.534Z,11.02
2023-05-20T01:33:46.389Z,16.20
2023-05-20T01:36:13.624Z,14.48
2023-05-20T01:38:41.565Z,13.70
2023-05-20T01:41:09.149Z,16.20
2023-05-20T01:43:37.742Z,16.42
2023-05-20T01:46:07.140Z,13.77
2023-05-20T01:48:34.714Z,20.75
2023-05-20T01:51:01.648Z,15.02
2023-05-20T01:53:28.706Z,17.27
2023-05-20T01:55:55.692Z,16.67
2023-05-20T01:58:22.507Z,15.13
2023-05-20T02:00:49.412Z,12.70
2023-05-20T02:03:16.509Z,12.98
2023-05-20T02:05:43.901Z,16.45
2023-05-20T02:08:10.741Z,14.80
2023-05-20T02:10:37.587Z,58.42
2023-05-20T02:13:04.440Z,20.92
2023-05-20T02:15:31.416Z,25.00
2023-05-20T02:17:58.459Z,11.10
2023-05-20T02:20:25.438Z,17.08
2023-05-20T02:22:52.245Z,18.15
2023-05-20T02:25:19.121Z,18.65
2023-05-20T02:27:45.962Z,13.32
2023-05-20T02:30:14.309Z,13.52
2023-05-20T02:32:41.148Z,14.02
2023-05-20T02:35:08.345Z,12.57
2023-05-20T02:37:35.212Z,14.40
2023-05-20T02:40:02.212Z,15.15
2023-05-20T02:42:29.223Z,15.15
2023-05-20T02:44:58.570Z,18.63
2023-05-20T02:47:25.988Z,16.10
2023-05-20T02:49:52.991Z,14.52
2023-05-20T02:52:19.861Z,14.57
2023-05-20T02:54:46.953Z,16.58
2023-05-20T02:57:13.768Z,12.63
2023-05-20T02:59:41.117Z,12.40
2023-05-20T03:02:07.963Z,15.77
2023-05-20T03:04:38.594Z,21.58
2023-05-20T03:07:07.672Z,19.60
2023-05-20T03:09:34.543Z,17.35
2023-05-20T03:12:01.487Z,14.82
2023-05-20T03:14:28.305Z,14.07
2023-05-20T03:16:57.866Z,15.48
2023-05-20T03:19:24.859Z,16.13
2023-05-20T03:21:51.847Z,21.85
2023-05-20T03:24:18.691Z,19.50
2023-05-20T03:26:47.018Z,13.80
2023-05-20T03:29:13.946Z,21.45
2023-05-20T03:31:41.016Z,20.77
2023-05-20T03:34:08.438Z,19.77
2023-05-20T03:36:35.349Z,18.27
2023-05-20T03:39:02.618Z,14.90
2023-05-20T03:41:29.542Z,34.10
2023-05-20T03:43:56.523Z,20.77
2023-05-20T03:46:23.338Z,18.15
2023-05-20T03:48:50.392Z,15.48
2023-05-20T03:51:17.241Z,16.77
2023-05-20T03:53:44.035Z,17.70
2023-05-20T03:56:10.905Z,16.00
2023-05-20T03:58:38.740Z,18.13
2023-05-20T04:01:05.915Z,13.50
2023-05-20T04:03:32.894Z,18.00
2023-05-20T04:05:59.810Z,16.33
2023-05-20T04:08:26.678Z,18.70
2023-05-20T04:10:57.537Z,18.38
2023-05-20T04:13:25.672Z,14.60
2023-05-20T04:15:53.214Z,16.88
2023-05-20T04:18:20.194Z,14.93
2023-05-20T04:20:47.121Z,20.23
2023-05-20T04:23:14.033Z,15.77
2023-05-20T04:25:42.264Z,20.25
2023-05-20T04:28:10.779Z,16.90
2023-05-20T04:30:37.688Z,16.73
2023-05-20T04:33:04.689Z,18.35
2023-05-20T04:35:32.026Z,18.02
2023-05-20T04:37:58.964Z,18.10
2023-05-20T04:40:27.443Z,29.30
2023-05-20T04:42:54.315Z,28.85
2023-05-20T04:45:23.329Z,25.50
2023-05-20T04:47:50.696Z,23.85
2023-05-20T04:50:17.549Z,30.13
2023-05-20T04:52:45.905Z,22.15
2023-05-20T04:55:13.520Z,22.17
2023-05-20T04:57:42.531Z,19.73
2023-05-20T05:00:11.438Z,19.25
2023-05-20T05:02:38.599Z,17.20
2023-05-20T05:05:07.297Z,15.40
2023-05-20T05:07:34.265Z,17.67
2023-05-20T05:10:01.434Z,20.83
2023-05-20T05:12:28.387Z,18.40
2023-05-20T05:14:55.180Z,16.48
2023-05-20T05:17:22.066Z,20.02
2023-05-20T05:19:48.921Z,25.20
2023-05-20T05:22:15.878Z,28.83
2023-05-20T05:24:42.738Z,22.75
2023-05-20T05:27:09.585Z,21.35
2023-05-20T05:29:36.388Z,24.00
2023-05-20T05:32:03.302Z,24.15
2023-05-20T05:34:30.136Z,18.25
2023-05-20T05:36:57.285Z,19.42
2023-05-20T05:39:24.090Z,22.30
2023-05-20T05:41:51.147Z,25.30
2023-05-20T05:44:17.945Z,21.33
2023-05-20T05:46:44.750Z,24.15
2023-05-20T05:49:11.581Z,19.90
2023-05-20T05:51:39.225Z,19.58
2023-05-20T05:54:06.105Z,21.42
2023-05-20T05:56:32.984Z,18.23
2023-05-20T05:58:59.787Z,19.02
2023-05-20T06:01:26.741Z,22.90
2023-05-20T06:03:54.050Z,19.25
2023-05-20T06:06:21.114Z,15.77
2023-05-20T06:08:52.999Z,17.90
2023-05-20T06:11:20.847Z,24.55
2023-05-20T06:13:47.749Z,19.60
2023-05-20T06:16:14.590Z,19.80
2023-05-20T06:18:41.453Z,20.70
2023-05-20T06:21:08.453Z,18.02
2023-05-20T06:23:35.326Z,15.75
2023-05-20T06:26:02.216Z,15.43
2023-05-20T06:28:30.717Z,20.90
2023-05-20T06:30:57.793Z,15.38
2023-05-20T06:33:28.587Z,14.90
2023-05-20T06:35:57.260Z,26.80
2023-05-20T06:38:24.115Z,19.40
2023-05-20T06:40:51.453Z,18.90
2023-05-20T06:43:18.709Z,24.05
2023-05-20T06:45:45.778Z,17.83
2023-05-20T06:48:21.953Z,14.55
2023-05-20T06:50:49.302Z,17.92
2023-05-20T06:53:16.160Z,16.75
2023-05-20T06:55:43.159Z,12.05
2023-05-20T06:58:09.989Z,10.90
2023-05-20T07:00:36.781Z,13.85
2023-05-20T07:03:03.824Z,11.60
2023-05-20T07:05:31.634Z,17.23
2023-05-20T07:07:58.574Z,14.45
2023-05-20T07:10:25.429Z,9.23
2023-05-20T07:12:52.260Z,14.23
2023-05-20T07:15:19.680Z,14.95
2023-05-20T07:17:46.548Z,10.88
2023-05-20T07:20:13.485Z,12.13
2023-05-20T07:22:40.309Z,10.27
2023-05-20T07:25:07.831Z,16.70
2023-05-20T07:27:34.734Z,12.05
2023-05-20T07:30:01.986Z,12.35
2023-05-20T07:32:28.862Z,9.80
2023-05-20T07:34:56.021Z,12.35
2023-05-20T07:37:22.873Z,13.90
2023-05-20T07:39:49.738Z,11.00
2023-05-20T07:42:16.808Z,12.13
2023-05-20T07:44:44.060Z,13.30
2023-05-20T07:47:11.143Z,15.85
2023-05-20T07:49:37.938Z,15.60
2023-05-20T07:52:05.091Z,11.70
2023-05-20T07:54:31.938Z,14.40
2023-05-20T07:57:00.361Z,11.75
2023-05-20T07:59:27.206Z,9.65
2023-05-20T08:01:54.411Z,12.93
2023-05-20T08:04:21.366Z,12.93
2023-05-20T08:06:48.263Z,12.75
2023-05-20T08:09:15.338Z,13.30
2023-05-20T08:11:42.214Z,15.63
2023-05-20T08:14:09.114Z,10.15
2023-05-20T08:16:36.806Z,9.88
2023-05-20T08:19:04.089Z,11.45
2023-05-20T08:21:31.181Z,10.48
2023-05-20T08:23:58.213Z,13.02
2023-05-20T08:26:25.073Z,13.45
2023-05-20T08:28:51.901Z,15.68
2023-05-20T08:31:19.453Z,16.00
2023-05-20T08:33:46.347Z,13.65
2023-05-20T08:36:13.585Z,11.60
2023-05-20T08:38:40.514Z,18.63
2023-05-20T08:41:07.377Z,11.43
2023-05-20T08:43:34.603Z,11.85
2023-05-20T08:46:05.347Z,10.40
2023-05-20T08:48:33.883Z,15.73
2023-05-20T08:51:03.856Z,15.27
2023-05-20T08:53:31.013Z,13.38
2023-05-20T08:56:03.191Z,15.65
2023-05-20T08:58:31.366Z,10.10
2023-05-20T09:00:59.070Z,11.30
2023-05-20T09:03:26.126Z,12.82
2023-05-20T09:05:53.891Z,15.65
2023-05-20T09:08:26.396Z,17.13
2023-05-20T09:10:54.432Z,18.02
2023-05-20T09:13:23.715Z,13.60
2023-05-20T09:15:51.957Z,16.27
2023-05-20T09:18:19.125Z,11.45
2023-05-20T09:20:48.147Z,15.20
2023-05-20T09:23:14.998Z,16.20
2023-05-20T09:25:42.121Z,12.60
2023-05-20T09:28:09.462Z,12.93
2023-05-20T09:30:36.691Z,10.40
2023-05-20T09:33:05.984Z,12.10
2023-05-20T09:35:37.892Z,16.83
2023-05-20T09:38:08.096Z,10.85
2023-05-20T09:40:37.847Z,11.13
2023-05-20T09:43:08.480Z,8.60
2023-05-20T09:45:36.126Z,12.40
2023-05-20T09:48:05.827Z,12.13
2023-05-20T09:50:33.351Z,14.45
2023-05-20T09:53:03.835Z,13.57
2023-05-20T09:55:31.243Z,27.83
2023-05-20T09:58:02.132Z,15.52
2023-05-20T10:00:29.157Z,22.37
2023-05-20T10:02:57.128Z,11.88
2023-05-20T10:05:29.034Z,15.32
2023-05-20T10:08:33.005Z,10.30
2023-05-20T10:11:18.694Z,12.02
2023-05-20T10:14:13.566Z,23.00
2023-05-20T10:16:48.406Z,15.05
2023-05-20T10:19:32.616Z,15.32
2023-05-20T10:22:02.589Z,10.02
2023-05-20T10:24:34.923Z,13.30
2023-05-20T10:27:03.574Z,11.38
2023-05-20T10:29:41.624Z,10.73
2023-05-20T10:32:08.596Z,8.50
2023-05-20T10:34:49.311Z,13.82
2023-05-20T10:37:43.085Z,11.75
2023-05-20T10:40:15.256Z,12.73
2023-05-20T10:42:43.119Z,9.95
2023-05-20T10:45:10.935Z,10.23
2023-05-20T10:47:42.950Z,15.50
2023-05-20T10:50:27.708Z,13.55
2023-05-20T10:52:55.263Z,11.70
2023-05-20T10:55:23.456Z,9.02
2023-05-20T10:57:51.898Z,11.68
2023-05-20T11:00:18.949Z,11.88
2023-05-20T11:02:46.783Z,10.55
2023-05-20T11:05:14.635Z,11.77
2023-05-20T11:07:41.502Z,14.48
2023-05-20T11:10:10.149Z,9.75
2023-05-20T11:12:37.073Z,14.20
2023-05-20T11:15:04.210Z,15.05
2023-05-20T11:17:31.642Z,11.18
2023-05-20T11:20:01.227Z,11.27
2023-05-20T11:22:28.172Z,16.50
2023-05-20T11:24:55.718Z,11.13
2023-05-20T11:27:22.588Z,11.93
2023-05-20T11:29:50.953Z,15.18
2023-05-20T11:32:21.444Z,10.13
2023-05-20T11:34:51.819Z,12.88
2023-05-20T11:37:20.204Z,13.38
2023-05-20T11:39:47.184Z,13.77
2023-05-20T11:42:16.570Z,9.77
2023-05-20T11:44:46.915Z,14.35
2023-05-20T11:47:13.853Z,11.02
2023-05-20T11:49:40.996Z,10.07
2023-05-20T11:52:11.237Z,11.88
2023-05-20T11:54:38.101Z,12.85
2023-05-20T11:57:06.960Z,13.10
2023-05-20T11:59:34.611Z,12.77
2023-05-20T12:02:01.453Z,11.82
2023-05-20T12:04:28.310Z,11.45
2023-05-20T12:06:55.920Z,13.93
2023-05-20T12:09:23.614Z,13.93
2023-05-20T12:11:50.945Z,13.32
2023-05-20T12:14:17.753Z,12.88
2023-05-20T12:16:44.680Z,9.70
2023-05-20T12:19:11.559Z,12.52
2023-05-20T12:21:38.497Z,11.93
2023-05-20T12:24:07.192Z,11.95
2023-05-20T12:26:35.455Z,10.98
2023-05-20T12:29:02.425Z,14.30
2023-05-20T12:31:29.680Z,9.15
2023-05-20T12:33:57.840Z,11.25
2023-05-20T12:36:24.878Z,9.55
2023-05-20T12:38:51.849Z,10.40
2023-05-20T12:41:18.718Z,9.65
2023-05-20T12:43:45.630Z,13.55
2023-05-20T12:46:13.581Z,8.73
2023-05-20T12:48:42.605Z,9.82
2023-05-20T12:51:09.631Z,12.32
2023-05-20T12:53:36.482Z,11.10
2023-05-20T12:56:03.848Z,10.13
2023-05-20T12:58:31.398Z,12.63
2023-05-20T13:00:58.304Z,9.82
2023-05-20T13:03:25.212Z,10.55
2023-05-20T13:05:52.195Z,9.27
2023-05-20T13:08:19.065Z,11.88
2023-05-20T13:10:46.255Z,12.60
2023-05-20T13:13:13.947Z,12.90
2023-05-20T13:15:41.484Z,9.30
2023-05-20T13:18:08.481Z,9.63
2023-05-20T13:20:35.694Z,8.98
2023-05-20T13:23:02.988Z,11.02
2023-05-20T13:25:29.858Z,13.50
2023-05-20T13:27:56.693Z,16.85
2023-05-20T13:30:23.525Z,11.77
2023-05-20T13:32:51.615Z,9.23
2023-05-20T13:35:18.539Z,31.52
2023-05-20T13:37:45.501Z,11.55
2023-05-20T13:40:12.964Z,11.20
2023-05-20T13:42:39.950Z,64.15
2023-05-20T13:45:07.388Z,80.95
2023-05-20T13:47:34.226Z,9.73
2023-05-20T13:50:03.058Z,11.30
2023-05-20T13:52:30.252Z,13.25
2023-05-20T13:54:57.120Z,8.93
2023-05-20T13:57:23.996Z,10.55
2023-05-20T13:59:50.956Z,11.45
2023-05-20T14:02:18.110Z,9.05
2023-05-20T14:04:46.962Z,13.23
2023-05-20T14:07:14.263Z,10.65
2023-05-20T14:09:41.251Z,10.45
2023-05-20T14:12:14.216Z,11.52
2023-05-20T14:14:40.994Z,12.82
2023-05-20T14:17:07.834Z,11.45
2023-05-20T14:19:34.845Z,10.57
2023-05-20T14:22:01.896Z,11.77
2023-05-20T14:24:28.978Z,14.52
2023-05-20T14:26:55.910Z,13.90
2023-05-20T14:29:22.724Z,12.13
2023-05-20T14:31:49.735Z,14.15
2023-05-20T14:34:16.716Z,11.65
2023-05-20T14:36:44.272Z,8.45
2023-05-20T14:39:11.101Z,10.80
2023-05-20T14:41:37.946Z,10.48
2023-05-20T14:44:04.920Z,10.27
2023-05-20T14:46:31.873Z,10.55
2023-05-20T14:48:58.762Z,11.45
2023-05-20T14:51:25.748Z,17.05
2023-05-20T14:53:52.614Z,12.88
2023-05-20T14:56:19.520Z,9.68
2023-05-20T14:58:46.346Z,11.35
2023-05-20T15:01:13.662Z,15.23
2023-05-20T15:03:40.553Z,10.52
2023-05-20T15:06:07.580Z,13.23
2023-05-20T15:08:34.390Z,12.25
2023-05-20T15:11:01.278Z,12.52
2023-05-20T15:13:32.235Z,8.95
2023-05-20T15:15:59.142Z,12.55
2023-05-20T15:18:25.958Z,13.43
2023-05-20T15:20:52.821Z,10.63
2023-05-20T15:23:19.694Z,10.57
2023-05-20T15:25:46.568Z,12.20
2023-05-20T15:28:13.372Z,11.20
2023-05-20T15:30:40.341Z,11.63
2023-05-20T15:33:07.436Z,11.73
2023-05-20T15:35:34.329Z,11.07
2023-05-20T15:38:01.127Z,11.18
2023-05-20T15:40:28.290Z,21.88
2023-05-20T15:42:55.109Z,10.15
2023-05-20T15:45:21.917Z,13.55
2023-05-20T15:47:49.017Z,12.63
2023-05-20T15:50:16.342Z,19.67
2023-05-20T15:52:43.232Z,9.30
2023-05-20T15:55:10.916Z,14.65
2023-05-20T15:57:37.782Z,12.45
2023-05-20T16:00:10.542Z,12.07
2023-05-20T16:02:38.552Z,13.23
2023-05-20T16:05:06.636Z,12.20
2023-05-20T16:07:33.461Z,14.95
2023-05-20T16:10:00.407Z,29.40
2023-05-20T16:12:27.311Z,24.38
2023-05-20T16:14:54.358Z,16.75
2023-05-20T16:17:21.771Z,20.02
2023-05-20T16:19:49.383Z,32.30
2023-05-20T16:22:18.230Z,27.00
2023-05-20T16:24:45.432Z,26.98
2023-05-20T16:27:12.260Z,20.50
2023-05-20T16:29:41.190Z,20.67
2023-05-20T16:32:08.257Z,21.48
2023-05-20T16:34:35.171Z,19.52
2023-05-20T16:37:02.090Z,22.10
2023-05-20T16:39:28.902Z,20.13
2023-05-20T16:41:55.701Z,21.45
2023-05-20T16:44:22.542Z,21.88
2023-05-20T16:46:49.806Z,20.45
2023-05-20T16:49:17.678Z,27.30
2023-05-20T16:51:44.554Z,22.58
2023-05-20T16:54:11.453Z,24.90
2023-05-20T16:56:38.261Z,20.80
2023-05-20T16:59:05.158Z,24.17
2023-05-20T17:01:32.188Z,19.73
2023-05-20T17:03:59.312Z,22.35
2023-05-20T17:06:26.248Z,22.20
2023-05-20T17:08:53.065Z,20.35
2023-05-20T17:11:19.866Z,23.73
2023-05-20T17:13:46.642Z,21.77
2023-05-20T17:16:13.745Z,20.58
2023-05-20T17:18:48.639Z,22.20
2023-05-20T17:21:39.662Z,17.60
2023-05-20T17:24:06.928Z,22.70
2023-05-20T17:26:33.773Z,19.10
2023-05-20T17:29:00.773Z,21.70
2023-05-20T17:31:27.670Z,22.15
2023-05-20T17:33:54.539Z,21.92
2023-05-20T17:36:24.253Z,25.20
2023-05-20T17:38:51.716Z,19.00
2023-05-20T17:41:18.688Z,20.27
2023-05-20T17:43:46.242Z,22.15
2023-05-20T17:46:13.326Z,21.98
2023-05-20T17:48:44.834Z,20.02
2023-05-20T17:51:11.679Z,21.20
2023-05-20T17:53:38.534Z,21.55
2023-05-20T17:56:05.920Z,24.58
2023-05-20T17:58:33.875Z,20.85
2023-05-20T18:01:01.460Z,20.88
2023-05-20T18:03:29.247Z,55.28
2023-05-20T18:05:56.823Z,26.60
2023-05-20T18:08:25.457Z,20.27
2023-05-20T18:10:52.558Z,27.50
2023-05-20T18:13:19.363Z,23.33
2023-05-20T18:15:47.019Z,20.80
2023-05-20T18:18:13.934Z,24.17
2023-05-20T18:20:40.995Z,24.75
2023-05-20T18:23:07.874Z,19.92
2023-05-20T18:25:34.722Z,20.48
2023-05-20T18:28:01.700Z,20.13
2023-05-20T18:30:28.606Z,19.58
2023-05-20T18:32:57.096Z,21.48
2023-05-20T18:35:23.959Z,30.60
2023-05-20T18:37:51.729Z,22.15
2023-05-20T18:40:20.688Z,21.80
2023-05-20T18:42:47.554Z,16.40
2023-05-20T18:45:14.409Z,15.95
2023-05-20T18:47:41.698Z,20.40
2023-05-20T18:50:08.902Z,18.70
2023-05-20T18:52:35.753Z,23.63
2023-05-20T18:55:02.612Z,21.58
2023-05-20T18:57:29.551Z,25.98
2023-05-20T18:59:56.884Z,24.70
2023-05-20T19:02:23.815Z,51.35
2023-05-20T19:04:50.678Z,24.08
2023-05-20T19:07:17.486Z,25.02
2023-05-20T19:09:44.330Z,22.60
2023-05-20T19:12:11.127Z,22.55
2023-05-20T19:14:37.909Z,46.88
2023-05-20T19:17:05.388Z,20.42
2023-05-20T19:19:32.366Z,24.83
2023-05-20T19:21:59.382Z,23.83
2023-05-20T19:24:26.216Z,26.83
2023-05-20T19:26:53.115Z,24.55
2023-05-20T19:29:19.908Z,23.98
2023-05-20T19:31:46.851Z,25.08
2023-05-20T19:34:13.726Z,26.33
2023-05-20T19:36:42.924Z,25.83
2023-05-20T19:39:10.319Z,22.70
2023-05-20T19:41:58.148Z,25.38
2023-05-20T19:44:25.118Z,26.85
2023-05-20T19:46:52.905Z,30.33
2023-05-20T19:49:20.258Z,33.75
2023-05-20T19:51:47.194Z,25.02
2023-05-20T19:54:14.095Z,31.17
2023-05-20T19:56:41.038Z,30.45
2023-05-20T19:59:07.849Z,27.10
2023-05-20T20:01:34.776Z,27.60
2023-05-20T20:04:01.692Z,23.65
2023-05-20T20:06:28.556Z,26.88
2023-05-20T20:08:55.382Z,23.20
2023-05-20T20:11:22.593Z,23.60
2023-05-20T20:13:49.561Z,26.35
2023-05-20T20:16:17.437Z,23.50
2023-05-20T20:18:44.404Z,26.08
2023-05-20T20:21:11.420Z,24.02
2023-05-20T20:23:38.303Z,26.13
2023-05-20T20:26:06.331Z,26.00
2023-05-20T20:28:33.343Z,25.90
2023-05-20T20:31:00.178Z,24.27
2023-05-20T20:33:27.736Z,32.42
2023-05-20T20:35:54.867Z,20.58
2023-05-20T20:38:21.663Z,21.42
2023-05-20T20:40:49.909Z,26.17
2023-05-20T20:43:21.137Z,22.42
2023-05-20T20:45:50.683Z,28.10
2023-05-20T20:48:18.792Z,30.60
2023-05-20T20:50:47.923Z,22.88
2023-05-20T20:53:17.077Z,25.63
2023-05-20T20:55:44.019Z,25.52
2023-05-20T20:58:10.833Z,32.90
2023-05-20T21:00:40.134Z,26.52
2023-05-20T21:03:08.291Z,29.83
2023-05-20T21:05:39.057Z,23.75
2023-05-20T21:08:08.533Z,34.97
2023-05-20T21:10:37.173Z,24.55
2023-05-20T21:13:04.179Z,29.27
2023-05-20T21:15:31.000Z,26.02
2023-05-20T21:17:57.826Z,25.42
2023-05-20T21:20:25.368Z,23.42
2023-05-20T21:22:52.230Z,27.05
2023-05-20T21:25:19.085Z,22.23
2023-05-20T21:27:46.121Z,26.75
2023-05-20T21:30:13.065Z,24.67
2023-05-20T21:32:39.916Z,26.17
2023-05-20T21:35:07.326Z,23.60
2023-05-20T21:37:34.192Z,25.90
2023-05-20T21:40:01.279Z,25.35
2023-05-20T21:42:28.160Z,23.08
2023-05-20T21:44:55.560Z,23.73
2023-05-20T21:47:22.347Z,27.67
2023-05-20T21:49:49.221Z,32.67
2023-05-20T21:52:16.006Z,29.15
2023-05-20T21:54:42.777Z,28.33
2023-05-20T21:57:09.597Z,25.92
2023-05-20T21:59:36.388Z,24.23
2023-05-20T22:02:03.578Z,23.88
2023-05-20T22:04:30.587Z,22.90
2023-05-20T22:06:57.410Z,31.23
2023-05-20T22:09:24.241Z,24.33
2023-05-20T22:11:51.329Z,25.38
2023-05-20T22:14:18.389Z,31.95
2023-05-20T22:16:49.071Z,26.05
2023-05-20T22:19:16.851Z,39.13
2023-05-20T22:21:50.347Z,22.98
2023-05-20T22:24:17.943Z,21.45
2023-05-20T22:26:44.945Z,23.13
2023-05-20T22:29:11.946Z,21.05
2023-05-20T22:31:38.755Z,24.08
2023-05-20T22:34:05.731Z,26.92
2023-05-20T22:36:36.527Z,21.77
2023-05-20T22:39:04.726Z,24.23
2023-05-20T22:41:31.730Z,29.55
2023-05-20T22:43:59.031Z,22.27
2023-05-20T22:46:25.998Z,23.52
2023-05-20T22:48:53.085Z,24.20
2023-05-20T22:51:21.376Z,30.92
2023-05-20T22:53:48.820Z,29.73
2023-05-20T22:56:16.316Z,24.30
2023-05-20T22:58:43.697Z,27.30
2023-05-20T23:01:10.687Z,39.50
2023-05-20T23:03:38.392Z,35.65
2023-05-20T23:06:05.492Z,32.28
2023-05-20T23:08:32.326Z,41.92
2023-05-20T23:10:59.141Z,32.55
2023-05-20T23:13:26.173Z,28.75
2023-05-20T23:15:53.006Z,33.17
2023-05-20T23:18:19.816Z,29.58
2023-05-20T23:20:47.728Z,33.33
2023-05-20T23:23:14.627Z,37.45
2023-05-20T23:25:43.566Z,25.92
2023-05-20T23:28:11.923Z,26.42
2023-05-20T23:30:38.824Z,28.05
2023-05-20T23:33:05.777Z,27.73
2023-05-20T23:35:32.692Z,23.60
2023-05-20T23:37:59.564Z,27.58
2023-05-20T23:40:26.380Z,25.95
2023-05-20T23:42:53.238Z,25.75
2023-05-20T23:45:20.079Z,28.98
2023-05-20T23:47:46.993Z,33.70
2023-05-20T23:50:13.882Z,40.40
2023-05-20T23:52:40.881Z,28.98
2023-05-20T23:55:12.882Z,25.40
2023-05-20T23:57:40.576Z,30.83
